createdAt,value
2019-02-16T14:57:25.955Z,42.00
2019-02-16T15:02:29.559Z,39.10
2019-02-16T15:07:33.541Z,38.90
2019-02-16T15:12:37.033Z,38.60
2019-02-16T15:17:40.735Z,38.60
2019-02-16T15:22:44.248Z,37.30
2019-02-16T15:27:48.200Z,36.60
2019-02-16T15:32:52.741Z,36.20
2019-02-16T15:37:57.813Z,37.30
2019-02-16T15:43:02.578Z,37.30
2019-02-16T15:48:07.923Z,37.60
2019-02-16T15:53:13.575Z,37.50
2019-02-16T15:58:18.467Z,37.40
2019-02-16T16:03:23.281Z,37.50
2019-02-16T16:08:46.482Z,37.60
2019-02-16T16:14:23.457Z,37.40
2019-02-16T16:20:04.548Z,38.70
2019-02-16T16:25:42.621Z,37.70
2019-02-16T16:31:08.926Z,37.90
2019-02-16T16:36:36.737Z,40.60
2019-02-16T16:41:51.692Z,42.80
2019-02-16T16:47:14.514Z,41.50
2019-02-16T16:52:38.987Z,42.30
2019-02-16T16:58:02.788Z,43.40
2019-02-16T17:03:26.807Z,44.70
2019-02-16T17:08:49.768Z,46.00
2019-02-16T17:14:25.494Z,46.80
2019-02-16T17:19:58.062Z,47.50
2019-02-16T17:25:34.755Z,49.00
2019-02-16T17:30:53.436Z,48.40
2019-02-16T17:36:23.000Z,49.00
2019-02-16T17:41:36.462Z,49.90
2019-02-16T17:47:03.459Z,49.90
2019-02-16T17:52:28.166Z,50.90
2019-02-16T17:58:06.168Z,51.00
2019-02-16T18:03:23.106Z,51.00
2019-02-16T18:08:56.934Z,51.60
2019-02-16T18:14:18.551Z,52.50
2019-02-16T18:19:43.623Z,52.90
2019-02-16T18:25:03.863Z,53.20
2019-02-16T18:30:19.500Z,54.80
2019-02-16T18:35:41.296Z,56.70
2019-02-16T18:41:18.591Z,56.20
2019-02-16T18:46:56.258Z,57.00
2019-02-16T18:52:31.117Z,57.80
2019-02-16T18:57:56.353Z,58.80
2019-02-16T19:03:12.026Z,57.80
2019-02-16T19:08:35.552Z,58.00
2019-02-16T19:13:49.979Z,57.90
2019-02-16T19:19:13.051Z,59.20
2019-02-16T19:24:34.785Z,58.80
2019-02-16T19:30:03.700Z,59.20
2019-02-16T19:35:24.211Z,59.90
2019-02-16T19:40:47.194Z,59.80
2019-02-16T19:46:20.144Z,60.20
2019-02-16T19:51:32.879Z,61.60
2019-02-16T19:56:57.273Z,61.90
2019-02-16T20:02:34.944Z,61.80
2019-02-16T20:08:09.309Z,61.30
2019-02-16T20:13:42.304Z,61.90
2019-02-16T20:19:07.978Z,60.60
2019-02-16T20:24:32.468Z,62.50
2019-02-16T20:30:05.230Z,62.40
2019-02-16T20:35:37.806Z,62.70
2019-02-16T20:40:59.194Z,62.10
2019-02-16T20:46:26.267Z,63.00
2019-02-16T20:52:00.688Z,62.70
2019-02-16T20:57:34.584Z,63.00
2019-02-16T21:03:04.662Z,62.90
2019-02-16T21:08:47.330Z,62.40
2019-02-16T21:14:14.060Z,62.80
2019-02-16T21:19:50.734Z,62.50
2019-02-16T21:25:29.687Z,63.20
2019-02-16T21:30:42.196Z,63.60
2019-02-16T21:36:11.360Z,64.50
2019-02-16T21:41:50.307Z,65.70
2019-02-16T21:47:11.876Z,64.90
2019-02-16T21:52:34.057Z,65.10
2019-02-16T21:57:56.978Z,64.90
2019-02-16T22:03:15.476Z,64.40
2019-02-16T22:08:32.285Z,65.00
2019-02-16T22:13:37.753Z,65.40
2019-02-16T22:18:42.929Z,65.10
2019-02-16T22:23:48.816Z,66.60
2019-02-16T22:28:52.186Z,66.40
2019-02-16T22:33:57.536Z,65.50
2019-02-16T22:39:03.636Z,66.30
2019-02-16T22:44:09.649Z,66.60
2019-02-16T22:49:17.087Z,67.40
2019-02-16T22:54:21.677Z,68.00
2019-02-16T22:59:26.876Z,68.50
2019-02-16T23:04:32.823Z,68.80
2019-02-16T23:09:38.807Z,68.50
2019-02-16T23:14:44.424Z,68.00
2019-02-16T23:19:49.538Z,67.80
2019-02-16T23:24:56.283Z,67.50
2019-02-16T23:30:01.691Z,67.90
2019-02-16T23:35:07.479Z,67.80
2019-02-16T23:40:12.560Z,67.50
2019-02-16T23:45:17.253Z,68.50
2019-02-16T23:50:21.981Z,68.00
2019-02-16T23:55:28.274Z,68.00
